Luana, Iowa
Current Conditions -  °F | °C
As of 6:15 AM on Friday 19 Dec 2014 (Local Time) from KPDC Reporting Station
Overcast Overcast  
Wind Chill: 26°   Ceiling: 7500
Heat Index: 26°   Visibility: 10mi
Dew Point: 19°   Wind: 0mph
Humidity: 76%   Direction: NA
Pressure: 30.3"   Gusts: NA
Location:  43.06°N, 91.45°W
Report Text: KPDC 191215Z AUTO 00000KT 10SM OVC075 M03/M07 A3030 RMK AO2 T10351071
Loading
Personal Weather Stations






























Interactive Weather Map New forecast layout! Learn more

10-Day Weather Forecast

Advertisements
Track Severe Weather on mobile